createdAt,value
2019-05-18T00:02:53.108Z,65.10
2019-05-18T00:05:57.408Z,65.10
2019-05-18T00:09:01.707Z,65.10
2019-05-18T00:12:06.085Z,65.10
2019-05-18T00:15:11.131Z,65.10
2019-05-18T00:18:15.497Z,65.10
2019-05-18T00:21:19.902Z,65.30
2019-05-18T00:24:24.255Z,65.40
2019-05-18T00:27:28.552Z,66.20
2019-05-18T00:30:32.897Z,65.60
2019-05-18T00:33:37.206Z,65.70
2019-05-18T00:36:41.653Z,65.80
2019-05-18T00:39:45.958Z,65.70
2019-05-18T00:42:50.309Z,65.80
2019-05-18T00:45:54.691Z,65.90
2019-05-18T00:48:59.015Z,65.90
2019-05-18T00:52:03.278Z,65.90
2019-05-18T00:55:08.817Z,65.90
2019-05-18T00:58:13.207Z,66.00
2019-05-18T01:01:17.599Z,66.10
2019-05-18T01:04:21.954Z,66.00
2019-05-18T01:07:26.306Z,66.10
2019-05-18T01:10:30.678Z,66.30
2019-05-18T01:13:34.973Z,66.60
2019-05-18T01:16:39.278Z,66.70
2019-05-18T01:19:43.597Z,66.80
2019-05-18T01:22:49.713Z,66.70
2019-05-18T01:25:54.094Z,66.70
2019-05-18T01:29:02.764Z,66.70
2019-05-18T01:32:07.153Z,66.60
2019-05-18T01:35:11.865Z,66.50
2019-05-18T01:38:16.217Z,66.50
2019-05-18T01:41:20.523Z,66.70
2019-05-18T01:44:25.187Z,66.70
2019-05-18T01:47:29.470Z,66.90
2019-05-18T01:50:33.801Z,67.40
2019-05-18T01:53:38.097Z,67.60
2019-05-18T01:56:42.434Z,67.80
2019-05-18T01:59:46.822Z,67.90
2019-05-18T02:02:51.170Z,68.10
2019-05-18T02:05:55.484Z,68.40
2019-05-18T02:08:59.810Z,68.40
2019-05-18T02:12:04.218Z,68.90
2019-05-18T02:15:08.952Z,69.10
2019-05-18T02:18:28.286Z,69.10
2019-05-18T02:21:20.814Z,69.20
2019-05-18T02:24:25.126Z,69.10
2019-05-18T02:27:29.650Z,69.20
2019-05-18T02:30:34.073Z,69.30
2019-05-18T02:33:38.454Z,69.30
2019-05-18T02:36:42.827Z,69.20
2019-05-18T02:39:48.728Z,69.10
2019-05-18T02:42:53.014Z,69.10
2019-05-18T02:45:58.933Z,68.60
2019-05-18T02:49:03.318Z,69.00
2019-05-18T02:52:07.775Z,68.90
2019-05-18T02:55:12.960Z,69.10
2019-05-18T02:58:17.269Z,68.90
2019-05-18T03:01:21.645Z,69.00
2019-05-18T03:04:26.007Z,68.90
2019-05-18T03:07:30.478Z,68.90
2019-05-18T03:10:34.780Z,68.90
2019-05-18T03:13:39.178Z,68.80
2019-05-18T03:16:43.552Z,68.90
2019-05-18T03:19:47.938Z,68.90
2019-05-18T03:22:52.305Z,68.80
2019-05-18T03:25:56.575Z,68.80
2019-05-18T03:29:02.186Z,68.90
2019-05-18T03:32:06.565Z,68.80
2019-05-18T03:35:10.943Z,68.90
2019-05-18T03:38:15.333Z,69.00
2019-05-18T03:41:19.637Z,68.90
2019-05-18T03:44:23.961Z,69.00
2019-05-18T03:47:28.295Z,69.00
2019-05-18T03:50:32.635Z,69.00
2019-05-18T03:53:36.975Z,69.10
2019-05-18T03:56:41.343Z,69.00
2019-05-18T03:59:45.661Z,69.00
2019-05-18T04:02:49.969Z,69.00
2019-05-18T04:05:54.386Z,69.00
2019-05-18T04:08:58.676Z,69.40
2019-05-18T04:12:03.023Z,69.10
2019-05-18T04:15:08.058Z,69.10
2019-05-18T04:18:12.450Z,69.00
2019-05-18T04:21:16.896Z,69.00
2019-05-18T04:24:21.320Z,69.20
2019-05-18T04:27:25.733Z,69.30
2019-05-18T04:30:30.044Z,69.90
2019-05-18T04:33:34.339Z,69.00
2019-05-18T04:36:38.726Z,69.20
2019-05-18T04:39:43.126Z,69.60
2019-05-18T04:42:47.613Z,70.40
2019-05-18T04:45:52.048Z,71.00
2019-05-18T04:48:56.444Z,71.90
2019-05-18T04:52:00.836Z,71.90
2019-05-18T04:55:05.406Z,72.10
2019-05-18T04:58:09.932Z,72.50
2019-05-18T05:01:14.318Z,72.50
2019-05-18T05:04:18.809Z,72.20
2019-05-18T05:07:24.231Z,70.30
2019-05-18T05:10:28.615Z,68.50
2019-05-18T05:13:32.918Z,67.10
2019-05-18T05:16:37.300Z,66.50
2019-05-18T05:19:41.627Z,66.10
2019-05-18T05:22:45.986Z,64.20
2019-05-18T05:25:50.369Z,63.50
2019-05-18T05:28:54.784Z,62.40
2019-05-18T05:31:59.122Z,62.10
2019-05-18T05:35:03.544Z,61.50
2019-05-18T05:38:07.945Z,60.70
2019-05-18T05:41:16.544Z,60.80
2019-05-18T05:44:18.390Z,60.50
2019-05-18T05:47:22.720Z,60.40
2019-05-18T05:50:35.356Z,60.20
2019-05-18T05:53:33.237Z,59.60
2019-05-18T05:56:37.557Z,59.30
2019-05-18T05:59:42.137Z,59.00
2019-05-18T06:02:46.520Z,58.70
2019-05-18T06:05:50.902Z,58.60
2019-05-18T06:08:55.197Z,58.60
2019-05-18T06:12:00.019Z,58.20
2019-05-18T06:15:04.967Z,58.60
2019-05-18T06:18:09.682Z,58.00
2019-05-18T06:21:15.169Z,57.80
2019-05-18T06:24:19.477Z,57.80
2019-05-18T06:27:23.786Z,57.40
2019-05-18T06:30:28.195Z,57.10
2019-05-18T06:33:32.892Z,57.40
2019-05-18T06:36:37.526Z,56.70
2019-05-18T06:39:43.078Z,56.00
2019-05-18T06:42:47.462Z,54.90
2019-05-18T06:45:52.970Z,55.00
2019-05-18T06:48:57.256Z,54.90
2019-05-18T06:52:11.842Z,54.80
2019-05-18T06:55:16.191Z,53.80
2019-05-18T06:58:22.486Z,54.60
2019-05-18T07:01:26.802Z,54.50
2019-05-18T07:04:34.276Z,54.90
2019-05-18T07:07:38.629Z,54.20
2019-05-18T07:10:42.999Z,54.20
2019-05-18T07:13:47.747Z,54.20
2019-05-18T07:16:52.492Z,54.20
2019-05-18T07:19:56.849Z,53.90
2019-05-18T07:23:02.925Z,53.70
2019-05-18T07:26:07.547Z,53.30
2019-05-18T07:29:12.172Z,53.60
2019-05-18T07:32:16.505Z,53.60
2019-05-18T07:35:21.230Z,52.70
2019-05-18T07:38:25.614Z,53.70
2019-05-18T07:41:45.907Z,52.60
2019-05-18T07:44:39.233Z,52.30
2019-05-18T07:47:43.527Z,52.00
2019-05-18T07:50:47.922Z,52.30
2019-05-18T07:53:52.308Z,53.10
2019-05-18T07:56:56.698Z,51.70
2019-05-18T08:00:04.684Z,51.60
2019-05-18T08:03:09.469Z,50.80
2019-05-18T08:06:13.814Z,51.40
2019-05-18T08:09:18.167Z,51.50
2019-05-18T08:12:22.482Z,51.60
2019-05-18T08:15:26.843Z,52.10
2019-05-18T08:18:31.134Z,51.70
2019-05-18T08:21:35.461Z,50.40
2019-05-18T08:24:39.762Z,50.20
2019-05-18T08:27:44.410Z,50.50
2019-05-18T08:30:48.864Z,51.00
2019-05-18T08:33:53.244Z,50.90
2019-05-18T08:36:57.615Z,51.00
2019-05-18T08:40:01.963Z,51.10
2019-05-18T08:43:06.423Z,51.00
2019-05-18T08:46:10.842Z,50.10
2019-05-18T08:49:15.206Z,48.80
2019-05-18T08:52:19.589Z,49.70
2019-05-18T08:55:23.868Z,49.60
2019-05-18T08:58:28.280Z,49.20
2019-05-18T09:01:32.711Z,47.90
2019-05-18T09:04:37.032Z,47.50
2019-05-18T09:07:41.348Z,48.10
2019-05-18T09:10:45.655Z,48.50
2019-05-18T09:13:50.050Z,49.10
2019-05-18T09:16:54.435Z,48.80
2019-05-18T09:19:58.811Z,49.20
2019-05-18T09:23:03.133Z,48.90
2019-05-18T09:26:07.713Z,48.40
2019-05-18T09:29:12.188Z,49.00
2019-05-18T09:32:16.568Z,48.80
2019-05-18T09:35:20.933Z,48.90
2019-05-18T09:38:25.661Z,48.00
2019-05-18T09:41:30.067Z,47.70
2019-05-18T09:44:34.447Z,47.90
2019-05-18T09:47:39.126Z,48.70
2019-05-18T09:50:43.515Z,49.20
2019-05-18T09:53:51.676Z,48.60
2019-05-18T09:56:54.334Z,47.70
2019-05-18T10:00:00.532Z,47.10
2019-05-18T10:03:04.890Z,46.70
2019-05-18T10:06:10.725Z,46.90
2019-05-18T10:09:15.126Z,46.60
2019-05-18T10:12:19.410Z,46.80
2019-05-18T10:15:23.751Z,45.80
2019-05-18T10:18:28.126Z,45.80
2019-05-18T10:21:32.480Z,45.60
2019-05-18T10:24:36.864Z,46.40
2019-05-18T10:27:41.197Z,46.00
2019-05-18T10:31:04.654Z,45.80
2019-05-18T10:34:09.046Z,44.80
2019-05-18T10:37:14.899Z,45.50
2019-05-18T10:40:20.534Z,45.80
2019-05-18T10:43:25.014Z,45.30
2019-05-18T10:46:29.387Z,44.50
2019-05-18T10:49:33.840Z,45.30
2019-05-18T10:52:38.148Z,46.00
2019-05-18T10:55:42.878Z,45.40
2019-05-18T10:58:47.543Z,45.20
2019-05-18T11:01:52.305Z,45.10
2019-05-18T11:05:15.951Z,45.40
2019-05-18T11:08:20.260Z,45.30
2019-05-18T11:11:43.632Z,45.70
2019-05-18T11:14:47.974Z,44.40
2019-05-18T11:17:52.273Z,45.10
2019-05-18T11:20:56.616Z,45.30
2019-05-18T11:24:00.922Z,44.10
2019-05-18T11:27:05.575Z,43.90
2019-05-18T11:30:10.868Z,43.80
2019-05-18T11:33:15.244Z,44.00
2019-05-18T11:36:19.620Z,44.20
2019-05-18T11:39:25.116Z,44.50
2019-05-18T11:42:29.838Z,44.30
2019-05-18T11:45:34.539Z,44.60
2019-05-18T11:48:38.828Z,45.10
2019-05-18T11:51:43.226Z,45.20
2019-05-18T11:54:47.663Z,46.10
2019-05-18T11:57:52.412Z,46.10
2019-05-18T12:00:57.243Z,46.10
2019-05-18T12:04:01.649Z,47.30
2019-05-18T12:07:06.110Z,46.40
2019-05-18T12:10:11.169Z,46.50
2019-05-18T12:13:15.559Z,46.50
2019-05-18T12:16:20.284Z,46.50
2019-05-18T12:19:24.975Z,46.30
2019-05-18T12:22:29.367Z,46.90
2019-05-18T12:25:34.079Z,47.10
2019-05-18T12:28:38.473Z,47.00
2019-05-18T12:31:42.880Z,46.90
2019-05-18T12:34:47.169Z,46.90
2019-05-18T12:37:51.553Z,46.80
2019-05-18T12:40:55.896Z,46.80
2019-05-18T12:44:00.521Z,47.00
2019-05-18T12:47:04.861Z,47.10
2019-05-18T12:50:28.363Z,47.60
2019-05-18T12:53:32.750Z,47.50
2019-05-18T12:56:37.032Z,47.90
2019-05-18T12:59:41.335Z,47.70
2019-05-18T13:02:45.638Z,47.50
2019-05-18T13:05:49.943Z,47.60
2019-05-18T13:08:54.286Z,47.70
2019-05-18T13:11:58.683Z,47.60
2019-05-18T13:15:03.057Z,47.90
2019-05-18T13:18:07.407Z,48.10
2019-05-18T13:21:11.871Z,48.30
2019-05-18T13:24:17.044Z,47.90
2019-05-18T13:27:21.477Z,47.80
2019-05-18T13:30:27.401Z,47.30
2019-05-18T13:33:31.817Z,47.00
2019-05-18T13:36:36.215Z,47.20
2019-05-18T13:39:40.649Z,46.60
2019-05-18T13:42:45.056Z,46.50
2019-05-18T13:45:49.400Z,47.10
2019-05-18T13:48:55.489Z,46.50
2019-05-18T13:51:59.846Z,46.40
2019-05-18T13:55:05.225Z,46.50
2019-05-18T13:58:09.888Z,47.40
2019-05-18T14:01:14.279Z,46.90
2019-05-18T14:04:18.580Z,46.70
2019-05-18T14:07:22.968Z,46.40
2019-05-18T14:10:39.397Z,46.30
2019-05-18T14:13:44.831Z,46.20
2019-05-18T14:16:49.233Z,46.10
2019-05-18T14:19:53.552Z,46.50
2019-05-18T14:22:57.848Z,47.00
2019-05-18T14:26:02.157Z,47.20
2019-05-18T14:29:06.471Z,47.10
2019-05-18T14:32:11.127Z,47.50
2019-05-18T14:35:15.583Z,47.40
2019-05-18T14:38:21.564Z,47.20
2019-05-18T14:41:25.918Z,47.20
2019-05-18T14:44:30.287Z,47.70
2019-05-18T14:47:34.612Z,47.60
2019-05-18T14:50:38.915Z,47.60
2019-05-18T14:53:43.298Z,47.50
2019-05-18T14:56:48.999Z,47.80
2019-05-18T14:59:53.339Z,47.80
2019-05-18T15:02:57.648Z,47.70
2019-05-18T15:06:02.066Z,47.90
2019-05-18T15:09:07.341Z,47.70
2019-05-18T15:12:11.731Z,47.90
2019-05-18T15:15:18.407Z,47.80
2019-05-18T15:18:22.843Z,48.00
2019-05-18T15:21:27.219Z,48.00
2019-05-18T15:24:31.540Z,47.70
2019-05-18T15:27:35.904Z,47.70
2019-05-18T15:30:40.300Z,48.00
2019-05-18T15:33:44.681Z,48.10
2019-05-18T15:36:49.003Z,48.20
2019-05-18T15:39:53.345Z,48.20
2019-05-18T15:42:57.695Z,48.30
2019-05-18T15:46:02.129Z,48.20
2019-05-18T15:49:06.565Z,48.30
2019-05-18T15:52:13.033Z,48.30
2019-05-18T15:55:17.316Z,47.60
2019-05-18T15:58:21.615Z,48.00
2019-05-18T16:01:26.031Z,48.20
2019-05-18T16:04:30.382Z,48.10
2019-05-18T16:07:35.132Z,48.00
2019-05-18T16:10:39.464Z,47.70
2019-05-18T16:13:44.163Z,47.90
2019-05-18T16:16:48.707Z,48.00
2019-05-18T16:19:53.048Z,48.10
2019-05-18T16:22:57.594Z,48.20
2019-05-18T16:26:01.892Z,48.10
2019-05-18T16:29:06.214Z,48.30
2019-05-18T16:32:10.672Z,48.30
2019-05-18T16:35:16.085Z,48.40
2019-05-18T16:38:20.414Z,48.40
2019-05-18T16:41:24.709Z,48.50
2019-05-18T16:44:29.095Z,48.70
2019-05-18T16:47:33.388Z,48.80
2019-05-18T16:50:37.808Z,48.50
2019-05-18T16:53:42.125Z,48.70
2019-05-18T16:56:46.448Z,48.70
2019-05-18T16:59:50.853Z,48.70
2019-05-18T17:02:55.222Z,48.90
2019-05-18T17:05:59.510Z,48.70
2019-05-18T17:09:06.109Z,48.80
2019-05-18T17:12:10.525Z,48.90
2019-05-18T17:15:15.371Z,49.00
2019-05-18T17:18:19.755Z,49.10
2019-05-18T17:21:25.547Z,49.00
2019-05-18T17:24:29.862Z,49.00
2019-05-18T17:27:34.165Z,49.10
2019-05-18T17:30:38.490Z,49.20
2019-05-18T17:33:42.819Z,49.20
2019-05-18T17:36:47.179Z,49.20
2019-05-18T17:39:51.864Z,49.30
2019-05-18T17:42:56.178Z,49.30
2019-05-18T17:46:03.686Z,49.50
2019-05-18T17:49:24.492Z,49.20
2019-05-18T17:52:14.141Z,49.40
2019-05-18T17:55:18.478Z,49.60
2019-05-18T17:58:22.837Z,49.50
2019-05-18T18:01:29.040Z,49.70
2019-05-18T18:04:33.412Z,49.80
2019-05-18T18:07:37.733Z,49.70
2019-05-18T18:10:42.578Z,49.90
2019-05-18T18:13:46.894Z,49.80
2019-05-18T18:16:51.260Z,50.00
2019-05-18T18:19:57.476Z,50.60
2019-05-18T18:23:03.641Z,50.10
2019-05-18T18:26:09.129Z,50.10
2019-05-18T18:29:14.809Z,50.20
2019-05-18T18:32:19.190Z,50.20
2019-05-18T18:35:23.494Z,50.30
2019-05-18T18:38:28.657Z,50.40
2019-05-18T18:41:33.055Z,50.80
2019-05-18T18:44:37.689Z,50.50
2019-05-18T18:47:42.021Z,50.60
2019-05-18T18:50:46.333Z,50.70
2019-05-18T18:53:50.730Z,50.80
2019-05-18T18:56:55.020Z,50.90
2019-05-18T18:59:59.336Z,51.00
2019-05-18T19:03:03.660Z,51.10
2019-05-18T19:06:08.039Z,51.20
2019-05-18T19:09:13.268Z,51.50
2019-05-18T19:12:17.583Z,51.60
2019-05-18T19:15:21.998Z,51.80
2019-05-18T19:18:26.401Z,51.80
2019-05-18T19:21:30.750Z,51.90
2019-05-18T19:24:35.142Z,52.00
2019-05-18T19:27:54.114Z,52.00
2019-05-18T19:30:48.248Z,51.80
2019-05-18T19:33:52.632Z,52.20
2019-05-18T19:36:57.065Z,52.30
2019-05-18T19:40:01.656Z,52.30
2019-05-18T19:43:05.980Z,52.40
2019-05-18T19:46:10.274Z,52.50
2019-05-18T19:49:14.965Z,52.50
2019-05-18T19:52:19.264Z,52.60
2019-05-18T19:55:23.753Z,52.70
2019-05-18T19:58:28.064Z,52.90
2019-05-18T20:01:32.462Z,53.00
2019-05-18T20:04:39.885Z,53.00
2019-05-18T20:07:44.644Z,52.90
2019-05-18T20:10:50.496Z,53.10
2019-05-18T20:13:54.814Z,53.20
2019-05-18T20:16:59.257Z,53.20
2019-05-18T20:20:03.677Z,53.40
2019-05-18T20:23:08.729Z,53.50
2019-05-18T20:26:13.305Z,53.40
2019-05-18T20:29:17.704Z,53.50
2019-05-18T20:32:22.029Z,53.60
2019-05-18T20:35:26.404Z,53.70
2019-05-18T20:38:30.715Z,53.70
2019-05-18T20:41:35.045Z,53.70
2019-05-18T20:44:39.412Z,53.70
2019-05-18T20:47:43.784Z,53.80
2019-05-18T20:50:48.113Z,53.70
2019-05-18T20:53:52.526Z,53.70
2019-05-18T20:56:56.877Z,53.90
2019-05-18T21:00:01.130Z,54.00
2019-05-18T21:03:05.459Z,54.30
2019-05-18T21:06:09.807Z,54.40
2019-05-18T21:09:14.162Z,54.70
2019-05-18T21:12:18.469Z,54.70
2019-05-18T21:15:22.880Z,54.90
2019-05-18T21:18:27.288Z,54.90
2019-05-18T21:21:31.695Z,55.10
2019-05-18T21:24:36.096Z,55.10
2019-05-18T21:27:40.426Z,55.20
2019-05-18T21:30:44.763Z,55.30
2019-05-18T21:33:49.107Z,55.20
2019-05-18T21:36:53.402Z,55.20
2019-05-18T21:39:57.673Z,55.30
2019-05-18T21:43:02.007Z,55.20
2019-05-18T21:46:06.358Z,55.20
2019-05-18T21:49:10.709Z,55.20
2019-05-18T21:52:15.028Z,55.20
2019-05-18T21:55:38.466Z,55.60
2019-05-18T21:58:42.771Z,55.00
2019-05-18T22:01:47.095Z,55.30
2019-05-18T22:04:51.491Z,55.30
2019-05-18T22:07:55.839Z,55.30
2019-05-18T22:11:00.199Z,55.40
2019-05-18T22:14:04.992Z,55.40
2019-05-18T22:17:09.325Z,55.40
2019-05-18T22:20:13.711Z,55.40
2019-05-18T22:23:18.099Z,55.40
2019-05-18T22:26:22.479Z,55.40
2019-05-18T22:29:26.884Z,55.30
2019-05-18T22:32:31.300Z,55.40
2019-05-18T22:35:35.643Z,55.40
2019-05-18T22:38:39.978Z,55.50
2019-05-18T22:41:44.313Z,55.50
2019-05-18T22:44:48.680Z,55.60
2019-05-18T22:47:52.997Z,55.70
2019-05-18T22:50:57.357Z,55.90
2019-05-18T22:54:01.707Z,55.90
2019-05-18T22:57:06.022Z,56.00
2019-05-18T23:00:10.781Z,56.10
2019-05-18T23:03:15.062Z,56.00
2019-05-18T23:06:20.864Z,56.00
2019-05-18T23:09:25.201Z,56.00
2019-05-18T23:12:29.532Z,56.00
2019-05-18T23:15:33.845Z,56.70
2019-05-18T23:18:38.501Z,56.20
2019-05-18T23:21:42.823Z,56.30
2019-05-18T23:24:47.108Z,56.30
2019-05-18T23:27:51.456Z,56.50
2019-05-18T23:30:55.847Z,56.50
2019-05-18T23:34:00.240Z,56.70
2019-05-18T23:37:04.532Z,56.80
2019-05-18T23:40:09.310Z,56.90
2019-05-18T23:43:13.624Z,57.70
2019-05-18T23:46:18.017Z,57.10
2019-05-18T23:49:22.383Z,57.20
2019-05-18T23:52:26.674Z,57.20
2019-05-18T23:55:31.068Z,57.40
2019-05-18T23:58:35.384Z,57.50
